createdAt,value
2019-05-11T00:01:09.169Z,86.86
2019-05-11T00:03:15.546Z,86.98
2019-05-11T00:05:22.070Z,87.14
2019-05-11T00:07:28.639Z,87.29
2019-05-11T00:09:35.186Z,87.36
2019-05-11T00:11:41.614Z,87.52
2019-05-11T00:13:48.025Z,87.74
2019-05-11T00:15:54.510Z,87.81
2019-05-11T00:18:01.022Z,87.79
2019-05-11T00:20:09.326Z,87.78
2019-05-11T00:22:15.787Z,87.77
2019-05-11T00:24:22.265Z,87.74
2019-05-11T00:26:28.777Z,87.70
2019-05-11T00:28:35.271Z,87.59
2019-05-11T00:30:41.741Z,87.52
2019-05-11T00:32:48.571Z,87.53
2019-05-11T00:34:54.947Z,87.47
2019-05-11T00:37:01.454Z,87.44
2019-05-11T00:39:09.165Z,87.34
2019-05-11T00:41:15.601Z,87.26
2019-05-11T00:43:22.055Z,87.22
2019-05-11T00:45:28.528Z,87.13
2019-05-11T00:47:35.135Z,87.07
2019-05-11T00:49:41.693Z,86.96
2019-05-11T00:51:48.221Z,86.80
2019-05-11T00:53:55.340Z,86.60
2019-05-11T00:56:01.787Z,86.50
2019-05-11T00:58:08.255Z,86.32
2019-05-11T01:00:15.926Z,86.16
2019-05-11T01:02:22.313Z,85.99
2019-05-11T01:04:28.721Z,86.03
2019-05-11T01:06:35.278Z,85.91
2019-05-11T01:08:41.719Z,85.85
2019-05-11T01:10:48.144Z,85.80
2019-05-11T01:12:54.545Z,85.72
2019-05-11T01:15:01.014Z,85.55
2019-05-11T01:17:08.757Z,85.46
2019-05-11T01:19:15.365Z,85.38
2019-05-11T01:21:21.782Z,85.33
2019-05-11T01:23:28.329Z,85.38
2019-05-11T01:25:35.890Z,85.36
2019-05-11T01:27:42.305Z,85.39
2019-05-11T01:29:48.719Z,85.24
2019-05-11T01:31:55.107Z,85.07
2019-05-11T01:34:01.498Z,84.91
2019-05-11T01:36:07.990Z,84.74
2019-05-11T01:38:14.490Z,84.65
2019-05-11T01:40:21.087Z,84.56
2019-05-11T01:42:27.497Z,84.48
2019-05-11T01:44:34.034Z,84.38
2019-05-11T01:46:40.423Z,84.28
2019-05-11T01:48:46.864Z,84.18
2019-05-11T01:50:54.491Z,84.26
2019-05-11T01:53:00.967Z,84.25
2019-05-11T01:55:07.681Z,84.30
2019-05-11T01:57:14.092Z,84.37
2019-05-11T01:59:20.525Z,84.37
2019-05-11T02:01:28.124Z,84.41
2019-05-11T02:03:34.636Z,84.44
2019-05-11T02:05:41.126Z,84.41
2019-05-11T02:07:47.526Z,84.40
2019-05-11T02:09:53.955Z,84.42
2019-05-11T02:12:00.501Z,84.34
2019-05-11T02:14:06.969Z,84.28
2019-05-11T02:16:13.373Z,84.13
2019-05-11T02:18:19.875Z,84.15
2019-05-11T02:20:26.472Z,84.11
2019-05-11T02:22:32.900Z,84.07
2019-05-11T02:24:39.298Z,84.02
2019-05-11T02:26:45.811Z,83.97
2019-05-11T02:28:52.197Z,83.91
2019-05-11T02:30:58.682Z,83.88
2019-05-11T02:33:05.133Z,83.78
2019-05-11T02:35:12.223Z,83.74
2019-05-11T02:37:18.647Z,83.65
2019-05-11T02:39:25.054Z,83.58
2019-05-11T02:41:36.176Z,83.44
2019-05-11T02:43:39.875Z,83.30
2019-05-11T02:45:46.360Z,83.21
2019-05-11T02:47:52.780Z,83.23
2019-05-11T02:49:59.251Z,83.33
2019-05-11T02:52:06.011Z,83.39
2019-05-11T02:54:13.065Z,83.40
2019-05-11T02:56:19.570Z,83.45
2019-05-11T02:58:26.030Z,83.43
2019-05-11T03:00:44.728Z,83.31
2019-05-11T03:02:51.110Z,83.34
2019-05-11T03:04:57.648Z,83.40
2019-05-11T03:07:04.132Z,83.39
2019-05-11T03:09:10.583Z,83.39
2019-05-11T03:11:18.330Z,83.34
2019-05-11T03:13:24.833Z,83.32
2019-05-11T03:15:31.528Z,83.27
2019-05-11T03:17:37.910Z,83.21
2019-05-11T03:19:44.516Z,83.14
2019-05-11T03:21:51.019Z,83.13
2019-05-11T03:23:57.430Z,83.07
2019-05-11T03:26:04.011Z,82.87
2019-05-11T03:28:10.499Z,82.75
2019-05-11T03:30:17.431Z,82.77
2019-05-11T03:32:23.908Z,82.70
2019-05-11T03:34:30.401Z,82.77
2019-05-11T03:36:36.787Z,82.86
2019-05-11T03:38:43.204Z,82.86
2019-05-11T03:40:49.597Z,82.89
2019-05-11T03:42:56.048Z,82.84
2019-05-11T03:45:02.542Z,82.83
2019-05-11T03:47:09.157Z,82.79
2019-05-11T03:49:15.631Z,82.73
2019-05-11T03:51:22.032Z,82.63
2019-05-11T03:53:28.534Z,82.63
2019-05-11T03:55:34.976Z,82.58
2019-05-11T03:57:41.482Z,82.50
2019-05-11T03:59:47.905Z,82.47
2019-05-11T04:01:55.439Z,82.30
2019-05-11T04:04:01.878Z,82.14
2019-05-11T04:06:08.361Z,82.06
2019-05-11T04:08:14.772Z,81.97
2019-05-11T04:10:24.828Z,81.89
2019-05-11T04:12:35.507Z,81.91
2019-05-11T04:14:38.790Z,81.90
2019-05-11T04:16:45.306Z,81.90
2019-05-11T04:18:51.709Z,81.77
2019-05-11T04:20:58.121Z,81.81
2019-05-11T04:23:04.596Z,81.69
2019-05-11T04:25:11.687Z,81.65
2019-05-11T04:27:19.608Z,81.36
2019-05-11T04:29:26.458Z,81.08
2019-05-11T04:31:32.935Z,80.46
2019-05-11T04:33:39.348Z,79.96
2019-05-11T04:35:45.861Z,79.42
2019-05-11T04:37:52.308Z,78.87
2019-05-11T04:39:58.658Z,78.24
2019-05-11T04:42:05.387Z,77.71
2019-05-11T04:44:12.089Z,77.16
2019-05-11T04:46:18.572Z,76.75
2019-05-11T04:48:25.409Z,76.02
2019-05-11T04:50:31.921Z,75.43
2019-05-11T04:52:38.361Z,75.30
2019-05-11T04:54:44.842Z,74.87
2019-05-11T04:56:51.463Z,74.69
2019-05-11T04:58:57.932Z,74.79
2019-05-11T05:01:06.037Z,74.93
2019-05-11T05:03:12.622Z,74.55
2019-05-11T05:05:19.087Z,74.61
2019-05-11T05:07:25.626Z,74.18
2019-05-11T05:09:35.901Z,73.24
2019-05-11T05:11:40.240Z,72.67
2019-05-11T05:13:46.712Z,71.84
2019-05-11T05:15:53.172Z,70.81
2019-05-11T05:17:59.601Z,70.24
2019-05-11T05:20:09.295Z,70.45
2019-05-11T05:22:15.785Z,70.04
2019-05-11T05:24:23.270Z,70.46
2019-05-11T05:26:29.673Z,70.45
2019-05-11T05:28:36.139Z,70.43
2019-05-11T05:30:42.642Z,70.70
2019-05-11T05:32:49.105Z,70.68
2019-05-11T05:34:55.499Z,70.84
2019-05-11T05:37:02.188Z,70.33
2019-05-11T05:39:09.449Z,70.01
2019-05-11T05:41:16.001Z,69.41
2019-05-11T05:43:27.719Z,69.65
2019-05-11T05:45:30.652Z,69.34
2019-05-11T05:47:37.130Z,68.58
2019-05-11T05:49:43.574Z,68.65
2019-05-11T05:51:50.119Z,68.56
2019-05-11T05:53:56.525Z,68.17
2019-05-11T05:56:03.049Z,67.95
2019-05-11T05:58:09.443Z,67.80
2019-05-11T06:00:16.135Z,67.10
2019-05-11T06:02:22.599Z,66.79
2019-05-11T06:04:29.968Z,66.19
2019-05-11T06:06:36.403Z,65.94
2019-05-11T06:08:43.376Z,64.60
2019-05-11T06:10:49.925Z,64.15
2019-05-11T06:12:56.500Z,63.47
2019-05-11T06:15:02.977Z,62.68
2019-05-11T06:17:09.449Z,62.04
2019-05-11T06:19:15.884Z,61.29
2019-05-11T06:21:22.370Z,60.71
2019-05-11T06:23:28.878Z,60.64
2019-05-11T06:25:35.370Z,60.84
2019-05-11T06:27:41.884Z,59.83
2019-05-11T06:29:48.370Z,59.24
2019-05-11T06:31:54.828Z,57.39
2019-05-11T06:34:01.343Z,54.40
2019-05-11T06:36:07.751Z,52.37
2019-05-11T06:38:14.161Z,50.30
2019-05-11T06:40:21.494Z,49.12
2019-05-11T06:42:29.214Z,47.39
2019-05-11T06:44:35.613Z,44.38
2019-05-11T06:46:42.043Z,43.78
2019-05-11T06:48:48.523Z,40.54
2019-05-11T06:50:54.910Z,39.99
2019-05-11T06:53:01.411Z,38.54
2019-05-11T06:55:08.218Z,36.25
2019-05-11T06:57:14.689Z,36.14
2019-05-11T06:59:21.206Z,37.11
2019-05-11T07:01:27.775Z,33.75
2019-05-11T07:03:34.329Z,31.31
2019-05-11T07:05:41.929Z,30.45
2019-05-11T07:07:48.336Z,31.00
2019-05-11T07:09:54.726Z,30.96
2019-05-11T07:12:01.245Z,29.61
2019-05-11T07:14:19.892Z,28.29
2019-05-11T07:16:16.076Z,26.95
2019-05-11T07:18:22.597Z,27.07
2019-05-11T07:20:29.129Z,29.31
2019-05-11T07:22:35.523Z,32.92
2019-05-11T07:24:41.946Z,36.46
2019-05-11T07:26:48.370Z,38.48
2019-05-11T07:28:58.016Z,39.41
2019-05-11T07:31:04.401Z,39.56
2019-05-11T07:33:10.937Z,39.51
2019-05-11T07:35:18.808Z,41.12
2019-05-11T07:37:27.851Z,42.34
2019-05-11T07:39:34.563Z,43.43
2019-05-11T07:41:42.056Z,43.86
2019-05-11T07:43:50.066Z,43.32
2019-05-11T07:45:58.470Z,38.96
2019-05-11T07:48:04.769Z,33.38
2019-05-11T07:50:11.479Z,29.01
2019-05-11T07:52:19.144Z,28.11
2019-05-11T07:54:27.910Z,30.34
2019-05-11T07:56:33.876Z,30.84
2019-05-11T07:58:40.448Z,32.94
2019-05-11T08:00:48.863Z,35.07
2019-05-11T08:02:58.299Z,36.77
2019-05-11T08:05:05.549Z,37.51
2019-05-11T08:07:13.194Z,38.27
2019-05-11T08:09:19.625Z,38.26
2019-05-11T08:11:28.908Z,37.08
2019-05-11T08:13:34.221Z,36.62
2019-05-11T08:15:40.746Z,37.88
2019-05-11T08:17:48.742Z,38.62
2019-05-11T08:19:57.932Z,39.38
2019-05-11T08:22:04.025Z,40.49
2019-05-11T08:24:10.428Z,41.44
2019-05-11T08:26:19.040Z,40.53
2019-05-11T08:28:25.026Z,40.04
2019-05-11T08:30:33.028Z,39.77
2019-05-11T08:32:40.898Z,39.05
2019-05-11T08:34:49.110Z,38.69
2019-05-11T08:36:55.584Z,39.55
2019-05-11T08:39:02.117Z,40.77
2019-05-11T08:41:09.801Z,41.90
2019-05-11T08:43:17.990Z,42.15
2019-05-11T08:45:25.016Z,42.13
2019-05-11T08:47:32.348Z,42.28
2019-05-11T08:49:38.753Z,42.86
2019-05-11T08:51:47.658Z,42.70
2019-05-11T08:53:53.368Z,43.22
2019-05-11T08:56:01.092Z,44.34
2019-05-11T08:58:08.638Z,43.50
2019-05-11T09:00:17.894Z,44.30
2019-05-11T09:02:24.318Z,44.10
2019-05-11T09:04:30.704Z,44.40
2019-05-11T09:06:37.769Z,43.69
2019-05-11T09:08:44.269Z,42.92
2019-05-11T09:10:51.769Z,41.88
2019-05-11T09:12:59.044Z,42.34
2019-05-11T09:15:08.766Z,42.59
2019-05-11T09:17:15.564Z,42.80
2019-05-11T09:19:23.298Z,43.75
2019-05-11T09:21:30.851Z,43.94
2019-05-11T09:23:40.521Z,43.87
2019-05-11T09:25:47.568Z,43.90
2019-05-11T09:27:53.787Z,43.74
2019-05-11T09:30:00.270Z,43.10
2019-05-11T09:32:08.871Z,42.73
2019-05-11T09:34:15.293Z,41.54
2019-05-11T09:36:22.106Z,41.87
2019-05-11T09:38:28.606Z,41.91
2019-05-11T09:40:35.302Z,41.68
2019-05-11T09:42:41.836Z,41.35
2019-05-11T09:44:48.707Z,40.71
2019-05-11T09:46:58.710Z,40.72
2019-05-11T09:49:03.386Z,39.95
2019-05-11T09:51:09.879Z,41.02
2019-05-11T09:53:17.668Z,41.77
2019-05-11T09:55:24.467Z,43.59
2019-05-11T09:57:30.991Z,43.52
2019-05-11T09:59:38.507Z,43.75
2019-05-11T10:01:45.534Z,44.50
2019-05-11T10:03:51.915Z,44.32
2019-05-11T10:05:58.311Z,44.13
2019-05-11T10:08:04.993Z,43.98
2019-05-11T10:10:11.652Z,43.87
2019-05-11T10:12:19.282Z,44.25
2019-05-11T10:14:25.738Z,44.29
2019-05-11T10:16:32.139Z,44.36
2019-05-11T10:18:38.770Z,43.49
2019-05-11T10:20:48.016Z,41.93
2019-05-11T10:22:53.881Z,41.65
2019-05-11T10:25:00.359Z,41.22
2019-05-11T10:27:08.428Z,41.84
2019-05-11T10:29:15.117Z,41.60
2019-05-11T10:31:21.708Z,41.38
2019-05-11T10:33:28.305Z,41.07
2019-05-11T10:35:34.791Z,41.04
2019-05-11T10:37:41.243Z,41.31
2019-05-11T10:39:48.833Z,41.67
2019-05-11T10:41:55.358Z,41.32
2019-05-11T10:44:01.809Z,42.22
2019-05-11T10:46:18.009Z,40.24
2019-05-11T10:48:17.732Z,41.13
2019-05-11T10:50:24.756Z,41.06
2019-05-11T10:52:31.262Z,41.19
2019-05-11T10:54:39.685Z,40.84
2019-05-11T10:56:48.026Z,40.17
2019-05-11T10:58:54.093Z,40.10
2019-05-11T11:01:00.625Z,39.62
2019-05-11T11:03:08.568Z,39.43
2019-05-11T11:05:15.366Z,39.66
2019-05-11T11:07:21.837Z,38.33
2019-05-11T11:09:28.441Z,37.55
2019-05-11T11:11:35.037Z,37.36
2019-05-11T11:13:41.431Z,36.75
2019-05-11T11:15:48.585Z,37.05
2019-05-11T11:17:57.753Z,37.88
2019-05-11T11:20:04.611Z,38.38
2019-05-11T11:22:33.311Z,39.14
2019-05-11T11:24:19.562Z,39.36
2019-05-11T11:26:25.993Z,39.71
2019-05-11T11:28:32.392Z,39.41
2019-05-11T11:30:38.964Z,39.42
2019-05-11T11:32:48.094Z,40.23
2019-05-11T11:34:53.937Z,40.64
2019-05-11T11:37:00.405Z,41.53
2019-05-11T11:39:08.492Z,42.30
2019-05-11T11:41:17.869Z,42.88
2019-05-11T11:43:28.676Z,43.04
2019-05-11T11:45:34.777Z,42.89
2019-05-11T11:47:41.310Z,43.33
2019-05-11T11:49:47.812Z,43.50
2019-05-11T11:51:54.276Z,43.34
2019-05-11T11:54:00.911Z,42.85
2019-05-11T11:56:08.283Z,43.09
2019-05-11T11:58:15.093Z,42.82
2019-05-11T12:00:21.810Z,42.12
2019-05-11T12:02:28.351Z,41.00
2019-05-11T12:04:34.738Z,39.61
2019-05-11T12:06:41.140Z,38.70
2019-05-11T12:08:49.663Z,37.93
2019-05-11T12:10:55.952Z,37.56
2019-05-11T12:13:03.526Z,36.96
2019-05-11T12:15:10.328Z,37.89
2019-05-11T12:17:18.284Z,38.40
2019-05-11T12:19:24.848Z,38.92
2019-05-11T12:21:31.285Z,42.28
2019-05-11T12:23:38.303Z,43.90
2019-05-11T12:25:45.159Z,46.44
2019-05-11T12:27:51.659Z,47.57
2019-05-11T12:29:58.365Z,49.05
2019-05-11T12:32:08.185Z,52.10
2019-05-11T12:34:14.907Z,51.02
2019-05-11T12:36:22.389Z,51.61
2019-05-11T12:38:29.857Z,53.58
2019-05-11T12:40:38.653Z,53.33
2019-05-11T12:42:44.512Z,50.13
2019-05-11T12:44:50.951Z,50.94
2019-05-11T12:46:58.313Z,50.28
2019-05-11T12:49:07.322Z,49.52
2019-05-11T12:51:13.433Z,48.78
2019-05-11T12:53:19.882Z,47.78
2019-05-11T12:55:28.447Z,47.85
2019-05-11T12:57:34.499Z,46.76
2019-05-11T12:59:42.139Z,43.15
2019-05-11T13:01:48.770Z,44.23
2019-05-11T13:03:55.210Z,43.02
2019-05-11T13:06:01.716Z,42.58
2019-05-11T13:08:08.295Z,42.22
2019-05-11T13:10:17.752Z,41.84
2019-05-11T13:12:24.660Z,42.92
2019-05-11T13:14:32.126Z,43.50
2019-05-11T13:16:38.708Z,44.10
2019-05-11T13:18:45.184Z,44.54
2019-05-11T13:20:51.650Z,44.22
2019-05-11T13:22:58.886Z,44.47
2019-05-11T13:25:08.515Z,44.25
2019-05-11T13:27:17.855Z,45.52
2019-05-11T13:29:24.880Z,46.67
2019-05-11T13:31:31.280Z,47.89
2019-05-11T13:33:38.436Z,47.99
2019-05-11T13:35:45.039Z,49.26
2019-05-11T13:37:51.513Z,50.48
2019-05-11T13:39:58.090Z,50.79
2019-05-11T13:42:04.682Z,52.30
2019-05-11T13:44:11.148Z,50.94
2019-05-11T13:46:19.103Z,52.10
2019-05-11T13:48:25.542Z,51.64
2019-05-11T13:50:32.041Z,51.72
2019-05-11T13:52:38.784Z,51.48
2019-05-11T13:54:45.278Z,55.22
2019-05-11T13:56:51.688Z,57.40
2019-05-11T13:58:59.871Z,58.34
2019-05-11T14:01:08.113Z,60.17
2019-05-11T14:03:14.926Z,60.88
2019-05-11T14:05:21.379Z,59.19
2019-05-11T14:07:27.812Z,60.91
2019-05-11T14:09:34.319Z,61.07
2019-05-11T14:11:44.902Z,58.81
2019-05-11T14:13:50.215Z,57.73
2019-05-11T14:15:58.669Z,59.23
2019-05-11T14:18:08.683Z,57.11
2019-05-11T14:20:13.378Z,53.29
2019-05-11T14:22:19.848Z,52.83
2019-05-11T14:24:28.647Z,52.44
2019-05-11T14:26:34.715Z,52.20
2019-05-11T14:28:42.311Z,51.21
2019-05-11T14:30:48.803Z,50.56
2019-05-11T14:32:55.365Z,49.88
2019-05-11T14:35:01.973Z,47.33
2019-05-11T14:37:09.610Z,44.45
2019-05-11T14:39:18.789Z,45.82
2019-05-11T14:41:24.413Z,43.67
2019-05-11T14:43:30.941Z,44.26
2019-05-11T14:45:38.085Z,42.61
2019-05-11T14:47:47.749Z,42.40
2019-05-11T14:49:53.042Z,42.34
2019-05-11T14:51:59.678Z,42.16
2019-05-11T14:54:08.226Z,42.76
2019-05-11T14:56:14.327Z,42.42
2019-05-11T14:58:20.786Z,41.40
2019-05-11T15:00:28.962Z,41.82
2019-05-11T15:02:50.084Z,41.11
2019-05-11T15:04:58.541Z,40.98
2019-05-11T15:07:04.391Z,41.04
2019-05-11T15:09:10.818Z,41.00
2019-05-11T15:11:19.174Z,40.91
2019-05-11T15:13:25.456Z,40.20
2019-05-11T15:15:31.999Z,40.20
2019-05-11T15:17:39.652Z,40.29
2019-05-11T15:19:46.283Z,38.87
2019-05-11T15:21:52.778Z,38.96
2019-05-11T15:23:59.598Z,38.61
2019-05-11T15:26:10.036Z,38.97
2019-05-11T15:28:18.158Z,38.02
2019-05-11T15:30:25.015Z,38.87
2019-05-11T15:32:31.492Z,37.99
2019-05-11T15:34:38.000Z,37.44
2019-05-11T15:36:44.386Z,37.43
2019-05-11T15:38:50.889Z,37.22
2019-05-11T15:40:57.964Z,38.51
2019-05-11T15:43:04.519Z,39.11
2019-05-11T15:45:11.863Z,39.14
2019-05-11T15:47:18.257Z,38.43
2019-05-11T15:49:24.706Z,38.66
2019-05-11T15:51:31.107Z,39.26
2019-05-11T15:53:37.555Z,39.81
2019-05-11T15:55:44.057Z,40.32
2019-05-11T15:57:50.580Z,39.95
2019-05-11T15:59:58.373Z,39.82
2019-05-11T16:02:05.056Z,39.52
2019-05-11T16:04:11.455Z,39.69
2019-05-11T16:06:18.515Z,40.26
2019-05-11T16:08:25.208Z,40.10
2019-05-11T16:10:31.614Z,40.12
2019-05-11T16:12:39.026Z,40.41
2019-05-11T16:14:45.813Z,39.79
2019-05-11T16:16:52.208Z,39.92
2019-05-11T16:19:10.709Z,40.37
2019-05-11T16:21:07.674Z,41.01
2019-05-11T16:23:14.371Z,41.05
2019-05-11T16:25:20.969Z,41.05
2019-05-11T16:27:28.464Z,40.17
2019-05-11T16:29:35.021Z,40.58
2019-05-11T16:31:41.449Z,40.54
2019-05-11T16:33:48.476Z,39.97
2019-05-11T16:35:55.021Z,39.27
2019-05-11T16:38:01.469Z,39.51
2019-05-11T16:40:09.637Z,38.44
2019-05-11T16:42:16.280Z,38.89
2019-05-11T16:44:22.782Z,38.63
2019-05-11T16:46:29.286Z,37.10
2019-05-11T16:48:38.122Z,36.84
2019-05-11T16:50:44.007Z,36.79
2019-05-11T16:52:50.688Z,36.83
2019-05-11T16:54:58.327Z,36.39
2019-05-11T16:57:04.856Z,36.47
2019-05-11T16:59:11.332Z,36.76
2019-05-11T17:01:18.802Z,37.25
2019-05-11T17:03:27.740Z,37.56
2019-05-11T17:05:34.039Z,37.88
2019-05-11T17:07:40.524Z,38.73
2019-05-11T17:09:48.280Z,39.16
2019-05-11T17:11:55.030Z,39.95
2019-05-11T17:14:01.456Z,40.38
2019-05-11T17:16:08.694Z,40.58
2019-05-11T17:18:15.325Z,41.05
2019-05-11T17:20:23.468Z,41.63
2019-05-11T17:22:29.980Z,41.83
2019-05-11T17:24:37.914Z,42.01
2019-05-11T17:26:44.749Z,42.06
2019-05-11T17:28:51.208Z,42.34
2019-05-11T17:30:59.793Z,42.77
2019-05-11T17:33:08.217Z,43.09
2019-05-11T17:35:14.324Z,43.13
2019-05-11T17:37:20.776Z,43.56
2019-05-11T17:39:28.160Z,43.43
2019-05-11T17:41:34.899Z,44.21
2019-05-11T17:43:41.349Z,44.10
2019-05-11T17:45:48.131Z,44.36
2019-05-11T17:47:54.771Z,44.57
2019-05-11T17:50:03.844Z,44.67
2019-05-11T17:52:09.353Z,45.19
2019-05-11T17:54:17.800Z,45.24
2019-05-11T17:56:23.922Z,45.40
2019-05-11T17:58:30.331Z,45.80
2019-05-11T18:00:39.225Z,46.11
2019-05-11T18:02:48.970Z,46.30
2019-05-11T18:04:58.386Z,46.68
2019-05-11T18:07:06.327Z,47.09
2019-05-11T18:09:12.884Z,47.42
2019-05-11T18:11:21.118Z,47.83
2019-05-11T18:13:28.388Z,47.78
2019-05-11T18:15:35.309Z,48.09
2019-05-11T18:17:41.904Z,48.59
2019-05-11T18:19:48.302Z,49.14
2019-05-11T18:21:54.890Z,51.81
2019-05-11T18:24:01.339Z,52.07
2019-05-11T18:26:08.817Z,52.57
2019-05-11T18:28:17.996Z,52.86
2019-05-11T18:30:23.899Z,53.37
2019-05-11T18:32:30.296Z,54.01
2019-05-11T18:34:37.725Z,54.76
2019-05-11T18:36:44.424Z,55.02
2019-05-11T18:38:50.821Z,55.47
2019-05-11T18:40:58.679Z,55.39
2019-05-11T18:43:05.090Z,55.51
2019-05-11T18:45:11.753Z,55.77
2019-05-11T18:47:19.065Z,56.05
2019-05-11T18:49:25.515Z,55.74
2019-05-11T18:51:31.929Z,56.05
2019-05-11T18:53:38.330Z,56.26
2019-05-11T18:55:44.733Z,57.12
2019-05-11T18:57:51.322Z,57.21
2019-05-11T18:59:58.755Z,57.57
2019-05-11T19:02:08.227Z,57.71
2019-05-11T19:04:13.656Z,57.75
2019-05-11T19:06:20.489Z,57.64
2019-05-11T19:08:27.925Z,57.94
2019-05-11T19:10:34.798Z,58.11
2019-05-11T19:12:41.199Z,58.42
2019-05-11T19:14:48.031Z,58.53
2019-05-11T19:16:54.469Z,58.56
2019-05-11T19:19:00.860Z,58.65
2019-05-11T19:21:09.155Z,58.53
2019-05-11T19:23:15.514Z,58.60
2019-05-11T19:25:22.114Z,58.83
2019-05-11T19:27:28.944Z,59.12
2019-05-11T19:29:37.723Z,59.81
2019-05-11T19:31:44.020Z,60.01
2019-05-11T19:33:50.501Z,60.33
2019-05-11T19:35:58.737Z,60.55
2019-05-11T19:38:05.584Z,60.70
2019-05-11T19:40:13.280Z,61.05
2019-05-11T19:42:19.944Z,61.20
2019-05-11T19:44:27.978Z,61.11
2019-05-11T19:46:34.747Z,61.89
2019-05-11T19:48:41.329Z,62.28
2019-05-11T19:51:03.790Z,62.47
2019-05-11T19:52:59.402Z,62.47
2019-05-11T19:55:08.539Z,62.33
2019-05-11T19:57:17.719Z,62.52
2019-05-11T19:59:23.315Z,62.81
2019-05-11T20:01:29.794Z,63.61
2019-05-11T20:03:37.835Z,63.82
2019-05-11T20:05:44.562Z,64.10
2019-05-11T20:07:51.006Z,64.08
2019-05-11T20:09:57.401Z,64.25
2019-05-11T20:12:03.874Z,64.88
2019-05-11T20:14:10.292Z,64.87
2019-05-11T20:16:18.691Z,65.16
2019-05-11T20:18:28.658Z,65.26
2019-05-11T20:20:37.553Z,65.77
2019-05-11T20:22:43.611Z,66.08
2019-05-11T20:24:49.999Z,66.23
2019-05-11T20:26:56.434Z,66.56
2019-05-11T20:29:03.027Z,66.68
2019-05-11T20:31:09.530Z,66.85
2019-05-11T20:33:15.935Z,67.05
2019-05-11T20:35:23.926Z,67.08
2019-05-11T20:37:30.418Z,67.06
2019-05-11T20:39:37.923Z,67.57
2019-05-11T20:41:44.723Z,67.41
2019-05-11T20:43:52.441Z,67.58
2019-05-11T20:45:58.837Z,67.75
2019-05-11T20:48:07.756Z,67.72
2019-05-11T20:50:13.934Z,67.66
2019-05-11T20:52:20.543Z,67.04
2019-05-11T20:54:28.163Z,66.22
2019-05-11T20:56:34.846Z,65.76
2019-05-11T20:58:59.209Z,65.77
2019-05-11T21:01:04.988Z,66.39
2019-05-11T21:03:11.678Z,66.31
2019-05-11T21:05:19.833Z,67.02
2019-05-11T21:07:28.025Z,66.86
2019-05-11T21:09:34.575Z,66.88
2019-05-11T21:11:41.642Z,66.95
2019-05-11T21:13:48.247Z,67.00
2019-05-11T21:15:59.104Z,66.71
2019-05-11T21:18:05.026Z,66.58
2019-05-11T21:20:12.218Z,66.51
2019-05-11T21:22:18.619Z,66.42
2019-05-11T21:24:25.015Z,66.33
2019-05-11T21:26:31.461Z,66.28
2019-05-11T21:28:38.080Z,66.38
2019-05-11T21:30:44.620Z,66.41
2019-05-11T21:32:51.189Z,66.26
2019-05-11T21:34:58.367Z,66.45
2019-05-11T21:37:07.730Z,66.55
2019-05-11T21:39:14.087Z,66.59
2019-05-11T21:41:20.704Z,66.63
2019-05-11T21:43:27.215Z,66.62
2019-05-11T21:45:33.694Z,66.81
2019-05-11T21:47:40.415Z,66.86
2019-05-11T21:49:48.486Z,66.95
2019-05-11T21:52:04.125Z,66.82
2019-05-11T21:54:03.017Z,66.53
2019-05-11T21:56:09.547Z,66.27
2019-05-11T21:58:18.292Z,66.40
2019-05-11T22:00:28.113Z,66.71
2019-05-11T22:02:38.411Z,67.91
2019-05-11T22:04:44.923Z,68.60
2019-05-11T22:06:51.499Z,69.04
2019-05-11T22:08:58.951Z,69.25
2019-05-11T22:11:05.696Z,69.79
2019-05-11T22:13:12.153Z,69.78
2019-05-11T22:15:19.076Z,69.98
2019-05-11T22:17:25.489Z,70.27
2019-05-11T22:19:31.973Z,70.33
2019-05-11T22:21:38.370Z,70.56
2019-05-11T22:23:44.848Z,70.67
2019-05-11T22:25:51.316Z,70.58
2019-05-11T22:27:57.760Z,70.41
2019-05-11T22:30:08.182Z,70.46
2019-05-11T22:32:14.289Z,70.51
2019-05-11T22:34:20.792Z,70.69
2019-05-11T22:36:28.186Z,70.69
2019-05-11T22:38:34.899Z,70.74
2019-05-11T22:40:41.470Z,70.80
2019-05-11T22:42:47.859Z,70.87
2019-05-11T22:44:54.245Z,70.92
2019-05-11T22:47:00.649Z,70.98
2019-05-11T22:49:08.453Z,71.47
2019-05-11T22:51:15.144Z,71.46
2019-05-11T22:53:21.684Z,71.45
2019-05-11T22:55:28.081Z,71.45
2019-05-11T22:57:34.555Z,71.57
2019-05-11T22:59:40.961Z,71.69
2019-05-11T23:01:48.340Z,71.85
2019-05-11T23:03:55.054Z,71.69
2019-05-11T23:06:01.511Z,71.67
2019-05-11T23:08:08.102Z,71.75
2019-05-11T23:10:14.715Z,72.17
2019-05-11T23:12:21.195Z,72.22
2019-05-11T23:14:28.230Z,72.45
2019-05-11T23:16:34.895Z,72.48
2019-05-11T23:18:41.282Z,72.53
2019-05-11T23:20:47.967Z,72.84
2019-05-11T23:23:00.577Z,72.83
2019-05-11T23:25:02.457Z,73.59
2019-05-11T23:27:08.928Z,73.51
2019-05-11T23:29:15.390Z,73.64
2019-05-11T23:31:21.851Z,73.72
2019-05-11T23:33:28.245Z,74.05
2019-05-11T23:35:34.735Z,74.35
2019-05-11T23:37:42.653Z,74.51
2019-05-11T23:39:49.183Z,74.56
2019-05-11T23:41:55.577Z,74.79
2019-05-11T23:44:01.971Z,74.90
2019-05-11T23:46:08.428Z,74.80
2019-05-11T23:48:14.924Z,75.05
2019-05-11T23:50:21.656Z,75.06
2019-05-11T23:52:29.575Z,75.13
2019-05-11T23:54:38.199Z,75.07
2019-05-11T23:56:44.210Z,75.22
2019-05-11T23:58:50.667Z,75.21
